createdAt,value
2019-03-19T00:00:43.759Z,6.74
2019-03-19T00:03:11.532Z,6.77
2019-03-19T00:05:38.943Z,6.83
2019-03-19T00:08:06.513Z,6.84
2019-03-19T00:10:33.970Z,6.77
2019-03-19T00:13:01.392Z,6.80
2019-03-19T00:15:28.847Z,6.84
2019-03-19T00:17:56.277Z,6.82
2019-03-19T00:20:23.708Z,6.80
2019-03-19T00:22:51.155Z,6.70
2019-03-19T00:25:29.070Z,6.65
2019-03-19T00:27:45.995Z,6.66
2019-03-19T00:30:13.399Z,6.67
2019-03-19T00:32:40.834Z,6.62
2019-03-19T00:35:08.261Z,6.63
2019-03-19T00:37:35.658Z,6.55
2019-03-19T00:40:03.054Z,6.51
2019-03-19T00:42:30.707Z,6.48
2019-03-19T00:44:58.136Z,6.45
2019-03-19T00:47:25.547Z,6.38
2019-03-19T00:49:53.892Z,6.36
2019-03-19T00:52:21.330Z,6.36
2019-03-19T00:54:48.781Z,6.36
2019-03-19T00:57:16.224Z,6.32
2019-03-19T00:59:43.677Z,6.23
2019-03-19T01:02:11.083Z,6.23
2019-03-19T01:04:38.502Z,6.14
2019-03-19T01:07:05.905Z,6.21
2019-03-19T01:09:33.323Z,6.31
2019-03-19T01:12:00.727Z,6.36
2019-03-19T01:14:28.136Z,6.40
2019-03-19T01:16:55.560Z,6.42
2019-03-19T01:19:22.956Z,6.46
2019-03-19T01:21:50.360Z,6.38
2019-03-19T01:24:18.510Z,6.33
2019-03-19T01:26:45.935Z,6.20
2019-03-19T01:29:13.369Z,6.10
2019-03-19T01:31:40.775Z,5.97
2019-03-19T01:34:08.222Z,5.84
2019-03-19T01:36:35.629Z,5.71
2019-03-19T01:39:03.019Z,5.63
2019-03-19T01:41:30.476Z,5.54
2019-03-19T01:43:57.896Z,5.50
2019-03-19T01:46:25.303Z,5.59
2019-03-19T01:48:52.685Z,5.64
2019-03-19T01:51:20.125Z,5.55
2019-03-19T01:53:47.580Z,5.36
2019-03-19T01:56:14.976Z,5.27
2019-03-19T01:58:42.479Z,5.31
2019-03-19T02:01:09.896Z,5.16
2019-03-19T02:03:37.827Z,5.07
2019-03-19T02:06:05.234Z,5.13
2019-03-19T02:08:32.628Z,5.25
2019-03-19T02:11:00.049Z,5.27
2019-03-19T02:13:27.431Z,5.33
2019-03-19T02:15:54.840Z,5.27
2019-03-19T02:18:22.236Z,5.24
2019-03-19T02:20:49.675Z,5.08
2019-03-19T02:23:17.075Z,5.03
2019-03-19T02:25:44.531Z,5.15
2019-03-19T02:28:11.935Z,5.26
2019-03-19T02:30:39.339Z,5.38
2019-03-19T02:33:06.736Z,5.41
2019-03-19T02:35:34.136Z,5.47
2019-03-19T02:38:01.518Z,5.51
2019-03-19T02:40:28.923Z,5.44
2019-03-19T02:42:56.349Z,5.31
2019-03-19T02:45:23.777Z,5.27
2019-03-19T02:47:51.197Z,5.29
2019-03-19T02:50:18.598Z,5.30
2019-03-19T02:52:46.158Z,5.32
2019-03-19T02:55:13.865Z,5.23
2019-03-19T02:57:41.282Z,5.11
2019-03-19T03:00:10.335Z,5.07
2019-03-19T03:02:37.732Z,4.86
2019-03-19T03:05:05.128Z,4.69
2019-03-19T03:07:32.598Z,4.68
2019-03-19T03:10:00.018Z,4.72
2019-03-19T03:12:27.413Z,4.70
2019-03-19T03:14:54.858Z,4.68
2019-03-19T03:17:22.268Z,4.63
2019-03-19T03:19:49.685Z,4.56
2019-03-19T03:22:17.153Z,4.42
2019-03-19T03:24:44.552Z,4.37
2019-03-19T03:27:12.003Z,4.29
2019-03-19T03:29:39.989Z,4.29
2019-03-19T03:32:07.395Z,4.42
2019-03-19T03:34:35.064Z,4.53
2019-03-19T03:37:02.516Z,4.58
2019-03-19T03:39:30.014Z,4.51
2019-03-19T03:41:57.428Z,4.58
2019-03-19T03:44:24.820Z,4.55
2019-03-19T03:46:52.222Z,4.40
2019-03-19T03:49:19.636Z,4.41
2019-03-19T03:51:47.089Z,4.49
2019-03-19T03:54:14.502Z,4.53
2019-03-19T03:56:41.973Z,4.60
2019-03-19T03:59:09.380Z,4.62
2019-03-19T04:01:37.403Z,4.62
2019-03-19T04:04:04.823Z,4.45
2019-03-19T04:06:32.288Z,4.29
2019-03-19T04:08:59.692Z,4.26
2019-03-19T04:11:27.104Z,4.36
2019-03-19T04:13:54.505Z,4.32
2019-03-19T04:16:21.904Z,4.42
2019-03-19T04:18:49.311Z,4.40
2019-03-19T04:21:16.703Z,4.36
2019-03-19T04:23:44.110Z,4.46
2019-03-19T04:26:11.501Z,4.41
2019-03-19T04:28:38.913Z,4.45
2019-03-19T04:31:06.308Z,4.45
2019-03-19T04:33:33.731Z,4.48
2019-03-19T04:36:01.127Z,4.53
2019-03-19T04:38:28.552Z,4.58
2019-03-19T04:40:55.962Z,4.58
2019-03-19T04:43:23.372Z,4.58
2019-03-19T04:45:50.766Z,4.55
2019-03-19T04:48:18.241Z,4.59
2019-03-19T04:50:45.618Z,4.59
2019-03-19T04:53:13.404Z,4.56
2019-03-19T04:55:40.811Z,4.54
2019-03-19T04:58:08.287Z,4.60
2019-03-19T05:00:35.704Z,4.62
2019-03-19T05:03:03.101Z,4.66
2019-03-19T05:05:30.508Z,4.69
2019-03-19T05:07:57.901Z,4.56
2019-03-19T05:10:25.443Z,4.48
2019-03-19T05:12:52.894Z,4.53
2019-03-19T05:15:20.292Z,4.55
2019-03-19T05:17:47.712Z,4.51
2019-03-19T05:20:15.157Z,4.49
2019-03-19T05:22:42.569Z,4.61
2019-03-19T05:25:09.974Z,4.66
2019-03-19T05:27:37.978Z,4.72
2019-03-19T05:30:07.563Z,4.80
2019-03-19T05:32:34.954Z,4.82
2019-03-19T05:35:02.475Z,4.78
2019-03-19T05:37:30.062Z,4.73
2019-03-19T05:39:57.479Z,4.75
2019-03-19T05:42:24.893Z,4.86
2019-03-19T05:44:52.356Z,4.92
2019-03-19T05:47:19.910Z,5.11
2019-03-19T05:49:47.321Z,4.97
2019-03-19T05:52:14.722Z,4.86
2019-03-19T05:54:42.123Z,4.79
2019-03-19T05:57:09.619Z,4.89
2019-03-19T05:59:37.015Z,4.82
2019-03-19T06:02:04.431Z,4.89
2019-03-19T06:04:32.394Z,4.91
2019-03-19T06:06:59.812Z,4.91
2019-03-19T06:09:27.247Z,5.05
2019-03-19T06:11:54.659Z,5.18
2019-03-19T06:14:22.069Z,5.24
2019-03-19T06:16:49.575Z,5.30
2019-03-19T06:19:17.040Z,5.39
2019-03-19T06:21:44.483Z,5.45
2019-03-19T06:24:11.905Z,5.53
2019-03-19T06:26:39.307Z,5.56
2019-03-19T06:29:06.733Z,5.66
2019-03-19T06:31:34.316Z,5.95
2019-03-19T06:34:01.708Z,6.36
2019-03-19T06:36:29.122Z,6.66
2019-03-19T06:38:56.615Z,6.73
2019-03-19T06:41:24.551Z,6.70
2019-03-19T06:43:52.298Z,6.91
2019-03-19T06:46:19.745Z,7.03
2019-03-19T06:48:47.197Z,7.09
2019-03-19T06:51:14.765Z,7.08
2019-03-19T06:53:41.838Z,6.99
2019-03-19T06:56:09.264Z,6.84
2019-03-19T06:58:37.579Z,6.95
2019-03-19T07:01:05.031Z,7.22
2019-03-19T07:03:31.965Z,7.43
2019-03-19T07:05:59.984Z,7.22
2019-03-19T07:08:27.388Z,7.39
2019-03-19T07:10:54.858Z,7.21
2019-03-19T07:13:22.378Z,7.07
2019-03-19T07:15:50.098Z,7.26
2019-03-19T07:18:17.541Z,7.25
2019-03-19T07:20:44.993Z,7.27
2019-03-19T07:23:13.377Z,7.33
2019-03-19T07:25:40.836Z,7.56
2019-03-19T07:28:08.314Z,7.63
2019-03-19T07:30:36.022Z,7.91
2019-03-19T07:33:03.432Z,8.08
2019-03-19T07:35:30.837Z,8.29
2019-03-19T07:37:58.333Z,8.49
2019-03-19T07:40:25.869Z,8.68
2019-03-19T07:42:53.248Z,8.59
2019-03-19T07:45:21.464Z,8.53
2019-03-19T07:47:48.882Z,8.52
2019-03-19T07:50:16.415Z,8.68
2019-03-19T07:52:43.935Z,8.95
2019-03-19T07:55:11.382Z,9.09
2019-03-19T07:57:38.851Z,9.18
2019-03-19T08:00:11.759Z,9.39
2019-03-19T08:02:39.263Z,9.68
2019-03-19T08:05:06.724Z,9.96
2019-03-19T08:07:34.186Z,10.16
2019-03-19T08:10:01.592Z,10.26
2019-03-19T08:12:28.997Z,10.43
2019-03-19T08:14:56.434Z,10.59
2019-03-19T08:17:23.914Z,10.74
2019-03-19T08:19:52.066Z,10.94
2019-03-19T08:22:19.472Z,10.93
2019-03-19T08:24:46.906Z,11.06
2019-03-19T08:27:14.393Z,11.17
2019-03-19T08:29:42.101Z,11.18
2019-03-19T08:32:09.929Z,11.32
2019-03-19T08:34:37.383Z,11.33
2019-03-19T08:37:05.699Z,11.30
2019-03-19T08:39:33.164Z,11.45
2019-03-19T08:42:00.131Z,11.15
2019-03-19T08:44:27.973Z,11.06
2019-03-19T08:46:54.593Z,11.21
2019-03-19T08:49:22.435Z,11.32
2019-03-19T08:51:48.593Z,11.24
2019-03-19T08:54:15.562Z,11.07
2019-03-19T08:56:42.561Z,11.17
2019-03-19T08:59:09.510Z,11.13
2019-03-19T09:01:36.996Z,11.19
2019-03-19T09:04:04.140Z,11.19
2019-03-19T09:06:31.566Z,11.29
2019-03-19T09:08:58.781Z,11.38
2019-03-19T09:11:26.212Z,11.50
2019-03-19T09:13:53.169Z,11.63
2019-03-19T09:16:20.102Z,11.73
2019-03-19T09:18:47.062Z,11.75
2019-03-19T09:21:14.144Z,11.82
2019-03-19T09:23:41.173Z,11.88
2019-03-19T09:26:08.154Z,11.86
2019-03-19T09:28:35.102Z,11.88
2019-03-19T09:31:02.074Z,11.89
2019-03-19T09:33:29.042Z,11.93
2019-03-19T09:35:55.990Z,11.70
2019-03-19T09:38:23.051Z,11.03
2019-03-19T09:40:50.093Z,10.51
2019-03-19T09:43:17.042Z,10.50
2019-03-19T09:45:43.992Z,10.47
2019-03-19T09:48:11.426Z,10.70
2019-03-19T09:50:38.814Z,11.20
2019-03-19T09:53:06.247Z,11.71
2019-03-19T09:55:34.507Z,11.79
2019-03-19T09:58:01.656Z,11.75
2019-03-19T10:00:28.669Z,11.99
2019-03-19T10:02:55.621Z,12.29
2019-03-19T10:05:22.588Z,12.52
2019-03-19T10:07:49.723Z,12.11
2019-03-19T10:10:17.745Z,11.99
2019-03-19T10:12:44.733Z,12.20
2019-03-19T10:15:11.915Z,12.36
2019-03-19T10:17:38.973Z,12.41
2019-03-19T10:20:08.824Z,12.79
2019-03-19T10:22:36.239Z,13.14
2019-03-19T10:25:05.118Z,13.09
2019-03-19T10:27:32.575Z,12.45
2019-03-19T10:30:00.037Z,12.17
2019-03-19T10:32:27.550Z,11.88
2019-03-19T10:34:55.009Z,12.28
2019-03-19T10:37:22.492Z,12.66
2019-03-19T10:39:49.953Z,12.41
2019-03-19T10:42:17.376Z,12.44
2019-03-19T10:44:45.894Z,12.62
2019-03-19T10:47:13.375Z,12.78
2019-03-19T10:49:41.680Z,12.58
2019-03-19T10:52:09.558Z,12.56
2019-03-19T10:54:36.986Z,12.74
2019-03-19T10:57:04.423Z,12.71
2019-03-19T10:59:32.383Z,12.55
2019-03-19T11:01:59.968Z,12.69
2019-03-19T11:04:27.436Z,13.07
2019-03-19T11:06:54.873Z,13.38
2019-03-19T11:09:22.293Z,13.54
2019-03-19T11:11:50.142Z,13.65
2019-03-19T11:14:18.058Z,13.58
2019-03-19T11:16:45.471Z,13.77
2019-03-19T11:19:13.087Z,13.95
2019-03-19T11:21:40.639Z,13.94
2019-03-19T11:24:08.119Z,13.73
2019-03-19T11:26:35.557Z,13.74
2019-03-19T11:29:02.983Z,13.99
2019-03-19T11:31:29.914Z,14.55
2019-03-19T11:33:56.873Z,14.87
2019-03-19T11:36:23.952Z,15.42
2019-03-19T11:38:51.382Z,16.01
2019-03-19T11:41:18.360Z,16.23
2019-03-19T11:43:45.336Z,16.58
2019-03-19T11:46:12.338Z,17.23
2019-03-19T11:48:39.316Z,17.26
2019-03-19T11:51:06.391Z,17.16
2019-03-19T11:53:33.405Z,17.21
2019-03-19T11:56:00.358Z,17.22
2019-03-19T11:58:27.589Z,17.41
2019-03-19T12:00:55.373Z,17.50
2019-03-19T12:03:22.329Z,17.99
2019-03-19T12:05:49.304Z,18.18
2019-03-19T12:08:16.804Z,18.61
2019-03-19T12:10:44.398Z,19.04
2019-03-19T12:13:11.386Z,19.30
2019-03-19T12:15:38.423Z,19.40
2019-03-19T12:18:06.119Z,19.35
2019-03-19T12:20:34.507Z,19.30
2019-03-19T12:23:01.949Z,18.75
2019-03-19T12:25:31.185Z,18.31
2019-03-19T12:27:56.780Z,18.49
2019-03-19T12:30:26.258Z,18.78
2019-03-19T12:32:51.627Z,18.50
2019-03-19T12:35:19.646Z,18.86
2019-03-19T12:37:47.755Z,19.45
2019-03-19T12:40:17.923Z,19.53
2019-03-19T12:42:45.363Z,19.05
2019-03-19T12:45:15.306Z,19.03
2019-03-19T12:47:42.732Z,19.01
2019-03-19T12:50:10.751Z,18.91
2019-03-19T12:52:38.213Z,19.53
2019-03-19T12:55:05.659Z,19.95
2019-03-19T12:57:33.163Z,19.84
2019-03-19T13:00:01.546Z,19.43
2019-03-19T13:02:29.006Z,19.47
2019-03-19T13:04:56.507Z,19.86
2019-03-19T13:07:24.187Z,19.89
2019-03-19T13:09:51.587Z,19.69
2019-03-19T13:12:19.042Z,18.97
2019-03-19T13:14:46.456Z,18.34
2019-03-19T13:17:13.861Z,17.91
2019-03-19T13:19:41.285Z,18.05
2019-03-19T13:22:08.916Z,17.87
2019-03-19T13:24:36.347Z,17.98
2019-03-19T13:27:04.063Z,17.88
2019-03-19T13:29:31.593Z,17.91
2019-03-19T13:31:59.579Z,17.72
2019-03-19T13:34:26.991Z,17.84
2019-03-19T13:36:54.586Z,17.69
2019-03-19T13:39:22.053Z,17.26
2019-03-19T13:41:49.471Z,17.38
2019-03-19T13:44:16.924Z,17.40
2019-03-19T13:46:44.323Z,17.75
2019-03-19T13:49:11.764Z,18.12
2019-03-19T13:51:39.192Z,18.13
2019-03-19T13:54:06.622Z,17.66
2019-03-19T13:56:34.058Z,17.88
2019-03-19T13:59:01.492Z,18.01
2019-03-19T14:01:28.903Z,18.25
2019-03-19T14:03:56.422Z,18.08
2019-03-19T14:06:23.367Z,18.40
2019-03-19T14:08:51.014Z,18.98
2019-03-19T14:11:18.445Z,19.32
2019-03-19T14:13:45.845Z,19.19
2019-03-19T14:16:13.274Z,19.88
2019-03-19T14:18:40.692Z,20.15
2019-03-19T14:21:08.236Z,19.31
2019-03-19T14:23:35.644Z,18.95
2019-03-19T14:26:03.114Z,19.18
2019-03-19T14:28:30.668Z,19.78
2019-03-19T14:31:08.117Z,19.71
2019-03-19T14:33:26.494Z,19.02
2019-03-19T14:35:54.004Z,18.80
2019-03-19T14:38:21.453Z,18.85
2019-03-19T14:40:48.868Z,18.93
2019-03-19T14:43:16.340Z,18.94
2019-03-19T14:45:43.927Z,19.15
2019-03-19T14:48:11.355Z,19.61
2019-03-19T14:50:38.758Z,19.23
2019-03-19T14:53:06.286Z,17.73
2019-03-19T14:55:33.714Z,17.59
2019-03-19T14:58:01.136Z,18.34
2019-03-19T15:00:29.772Z,19.04
2019-03-19T15:02:57.274Z,19.41
2019-03-19T15:05:24.715Z,19.63
2019-03-19T15:07:52.176Z,19.73
2019-03-19T15:10:19.615Z,19.00
2019-03-19T15:12:47.098Z,17.73
2019-03-19T15:15:14.487Z,17.80
2019-03-19T15:17:41.977Z,18.31
2019-03-19T15:20:09.447Z,18.15
2019-03-19T15:22:36.910Z,18.22
2019-03-19T15:25:04.400Z,17.94
2019-03-19T15:27:31.821Z,18.01
2019-03-19T15:29:59.299Z,18.24
2019-03-19T15:32:26.784Z,17.82
2019-03-19T15:34:54.198Z,17.81
2019-03-19T15:37:21.633Z,17.77
2019-03-19T15:39:49.066Z,17.59
2019-03-19T15:42:16.667Z,17.64
2019-03-19T15:44:44.059Z,17.29
2019-03-19T15:47:11.471Z,16.78
2019-03-19T15:49:38.920Z,16.42
2019-03-19T15:52:06.381Z,16.21
2019-03-19T15:54:34.120Z,16.27
2019-03-19T15:57:01.527Z,16.60
2019-03-19T15:59:28.945Z,16.91
2019-03-19T16:01:56.565Z,17.10
2019-03-19T16:04:23.995Z,17.13
2019-03-19T16:06:51.396Z,17.17
2019-03-19T16:09:18.821Z,16.71
2019-03-19T16:11:47.251Z,16.40
2019-03-19T16:14:14.717Z,16.18
2019-03-19T16:16:42.119Z,15.98
2019-03-19T16:19:09.547Z,15.80
2019-03-19T16:21:36.948Z,15.84
2019-03-19T16:24:04.468Z,15.79
2019-03-19T16:26:31.882Z,15.74
2019-03-19T16:28:59.307Z,15.81
2019-03-19T16:31:26.901Z,15.82
2019-03-19T16:33:54.317Z,15.44
2019-03-19T16:36:21.753Z,15.64
2019-03-19T16:38:49.171Z,15.34
2019-03-19T16:41:16.788Z,14.98
2019-03-19T16:43:44.186Z,14.85
2019-03-19T16:46:11.877Z,14.83
2019-03-19T16:48:39.400Z,14.88
2019-03-19T16:51:06.899Z,14.61
2019-03-19T16:53:34.355Z,14.58
2019-03-19T16:56:01.792Z,14.66
2019-03-19T16:58:29.206Z,14.69
2019-03-19T17:00:56.960Z,14.23
2019-03-19T17:03:24.605Z,13.64
2019-03-19T17:05:52.020Z,13.43
2019-03-19T17:08:19.611Z,13.23
2019-03-19T17:10:47.071Z,13.22
2019-03-19T17:13:14.493Z,13.21
2019-03-19T17:15:41.438Z,13.02
2019-03-19T17:18:08.883Z,12.85
2019-03-19T17:20:36.566Z,12.34
2019-03-19T17:23:04.040Z,12.14
2019-03-19T17:25:31.607Z,11.99
2019-03-19T17:27:59.000Z,11.82
2019-03-19T17:30:29.295Z,11.61
2019-03-19T17:32:56.837Z,11.46
2019-03-19T17:35:24.236Z,11.29
2019-03-19T17:37:51.696Z,11.09
2019-03-19T17:40:19.132Z,10.96
2019-03-19T17:42:46.558Z,10.95
2019-03-19T17:45:15.197Z,10.79
2019-03-19T17:47:42.799Z,10.62
2019-03-19T17:50:14.949Z,10.48
2019-03-19T17:52:42.453Z,10.40
2019-03-19T17:55:09.997Z,10.28
2019-03-19T17:57:37.444Z,10.20
2019-03-19T18:00:04.856Z,10.15
2019-03-19T18:02:32.302Z,10.11
2019-03-19T18:04:59.725Z,10.02
2019-03-19T18:07:27.298Z,10.00
2019-03-19T18:09:54.737Z,9.95
2019-03-19T18:12:22.127Z,9.94
2019-03-19T18:14:49.566Z,9.86
2019-03-19T18:17:17.001Z,9.83
2019-03-19T18:19:45.203Z,9.80
2019-03-19T18:22:12.611Z,9.76
2019-03-19T18:24:40.043Z,9.76
2019-03-19T18:27:07.467Z,9.67
2019-03-19T18:29:34.853Z,9.68
2019-03-19T18:32:02.325Z,9.64
2019-03-19T18:34:29.795Z,9.57
2019-03-19T18:36:57.301Z,9.52
2019-03-19T18:39:24.769Z,9.52
2019-03-19T18:41:52.182Z,9.49
2019-03-19T18:44:19.607Z,9.49
2019-03-19T18:46:47.070Z,9.50
2019-03-19T18:49:14.519Z,9.46
2019-03-19T18:51:41.936Z,9.44
2019-03-19T18:54:09.368Z,9.42
2019-03-19T18:56:36.796Z,9.38
2019-03-19T18:59:04.227Z,9.33
2019-03-19T19:01:31.638Z,9.32
2019-03-19T19:03:59.151Z,9.32
2019-03-19T19:06:26.582Z,9.25
2019-03-19T19:08:53.979Z,9.28
2019-03-19T19:11:21.535Z,9.26
2019-03-19T19:13:48.986Z,9.25
2019-03-19T19:16:16.462Z,9.27
2019-03-19T19:18:43.869Z,9.26
2019-03-19T19:21:11.383Z,9.23
2019-03-19T19:23:38.834Z,9.22
2019-03-19T19:26:06.239Z,9.23
2019-03-19T19:28:33.678Z,9.21
2019-03-19T19:31:01.067Z,9.22
2019-03-19T19:33:28.535Z,9.22
2019-03-19T19:35:55.992Z,9.21
2019-03-19T19:38:23.420Z,9.23
2019-03-19T19:40:50.928Z,9.20
2019-03-19T19:43:18.534Z,9.17
2019-03-19T19:45:45.994Z,9.17
2019-03-19T19:48:13.465Z,9.14
2019-03-19T19:50:41.891Z,9.11
2019-03-19T19:53:09.310Z,9.12
2019-03-19T19:55:36.692Z,9.09
2019-03-19T19:58:04.116Z,9.08
2019-03-19T20:00:31.840Z,9.08
2019-03-19T20:02:59.427Z,9.03
2019-03-19T20:05:26.859Z,8.96
2019-03-19T20:07:54.372Z,8.98
2019-03-19T20:10:23.282Z,8.96
2019-03-19T20:12:50.785Z,8.96
2019-03-19T20:15:18.198Z,8.97
2019-03-19T20:17:45.609Z,8.97
2019-03-19T20:20:13.696Z,9.00
2019-03-19T20:22:41.314Z,8.98
2019-03-19T20:25:08.880Z,8.94
2019-03-19T20:27:36.649Z,8.85
2019-03-19T20:30:04.857Z,8.88
2019-03-19T20:32:32.306Z,8.86
2019-03-19T20:34:59.759Z,8.84
2019-03-19T20:37:27.192Z,8.86
2019-03-19T20:39:54.610Z,8.90
2019-03-19T20:42:22.039Z,8.89
2019-03-19T20:44:49.453Z,8.83
2019-03-19T20:47:16.867Z,8.82
2019-03-19T20:49:47.826Z,8.81
2019-03-19T20:52:12.420Z,8.78
2019-03-19T20:54:39.901Z,8.79
2019-03-19T20:57:07.337Z,8.75
2019-03-19T20:59:35.508Z,8.71
2019-03-19T21:02:02.929Z,8.65
2019-03-19T21:04:31.707Z,8.61
2019-03-19T21:06:58.038Z,8.57
2019-03-19T21:09:25.459Z,8.54
2019-03-19T21:11:53.408Z,8.52
2019-03-19T21:14:20.540Z,8.53
2019-03-19T21:16:47.975Z,8.56
2019-03-19T21:19:15.799Z,8.58
2019-03-19T21:21:43.204Z,8.58
2019-03-19T21:24:10.671Z,8.60
2019-03-19T21:26:38.084Z,8.62
2019-03-19T21:29:05.624Z,8.65
2019-03-19T21:31:33.040Z,8.70
2019-03-19T21:34:00.537Z,8.70
2019-03-19T21:36:27.945Z,8.71
2019-03-19T21:38:55.386Z,8.74
2019-03-19T21:41:22.807Z,8.71
2019-03-19T21:43:50.202Z,8.65
2019-03-19T21:46:17.762Z,8.63
2019-03-19T21:48:45.193Z,8.70
2019-03-19T21:51:12.671Z,8.72
2019-03-19T21:53:40.212Z,8.73
2019-03-19T21:56:07.623Z,8.74
2019-03-19T21:58:35.638Z,8.82
2019-03-19T22:01:03.170Z,8.84
2019-03-19T22:03:30.588Z,8.83
2019-03-19T22:05:58.211Z,8.80
2019-03-19T22:08:25.611Z,8.77
2019-03-19T22:10:53.193Z,8.70
2019-03-19T22:13:20.600Z,8.63
2019-03-19T22:15:47.999Z,8.60
2019-03-19T22:18:15.419Z,8.61
2019-03-19T22:20:42.995Z,8.54
2019-03-19T22:23:10.445Z,8.51
2019-03-19T22:25:37.848Z,8.54
2019-03-19T22:28:05.333Z,8.54
2019-03-19T22:30:33.628Z,8.56
2019-03-19T22:33:01.390Z,8.53
2019-03-19T22:35:28.786Z,8.48
2019-03-19T22:37:56.197Z,8.44
2019-03-19T22:40:23.662Z,8.50
2019-03-19T22:42:51.195Z,8.48
2019-03-19T22:45:18.635Z,8.48
2019-03-19T22:47:46.238Z,8.49
2019-03-19T22:50:14.533Z,8.49
2019-03-19T22:52:41.936Z,8.48
2019-03-19T22:55:10.254Z,8.39
2019-03-19T22:57:37.833Z,8.33
2019-03-19T23:00:06.797Z,8.32
2019-03-19T23:02:34.206Z,8.31
2019-03-19T23:05:01.615Z,8.30
2019-03-19T23:07:29.162Z,8.26
2019-03-19T23:09:57.850Z,8.30
2019-03-19T23:12:25.311Z,8.35
2019-03-19T23:14:52.774Z,8.33
2019-03-19T23:17:20.170Z,8.28
2019-03-19T23:19:47.670Z,8.21
2019-03-19T23:22:15.341Z,8.17
2019-03-19T23:24:42.726Z,8.10
2019-03-19T23:27:10.285Z,8.12
2019-03-19T23:29:37.725Z,8.10
2019-03-19T23:32:05.156Z,8.16
2019-03-19T23:34:38.547Z,8.10
2019-03-19T23:37:00.126Z,8.10
2019-03-19T23:39:27.548Z,8.11
2019-03-19T23:41:54.961Z,8.08
2019-03-19T23:44:22.393Z,8.00
2019-03-19T23:46:50.740Z,7.96
2019-03-19T23:49:18.240Z,7.97
2019-03-19T23:51:45.645Z,7.97
2019-03-19T23:54:13.075Z,7.96
2019-03-19T23:56:40.572Z,7.91
2019-03-19T23:59:08.142Z,7.86
